KBRL/BRL METAR and TAF weather

Enter ICAO airport designator
Station Type Date Time Source
KBRL METAR 2021/05/14 02:53 UTC NOAA

KBRL 140253Z AUTO 00000KT 10SM CLR 12/M01 A3032 RMK AO2 SLP266 T01171006 53005


Station Type Date Time Source
KBRL Decoded METAR 2021/05/14 02:53 UTC NOAA

BURLINGTON REGIONAL AIRPORT, IA, United States (KBRL) 40-46N 91-08W 211M
May 13, 2021 - 10:53 PM EDT / 2021.05.14 0253 UTC
Wind: Calm:0
Visibility: 10 mile(s):0
Sky conditions: clear
Temperature: 53.1 F (11.7 C)
Dew Point: 30.9 F (-0.6 C)
Relative Humidity: 42%
Pressure (altimeter): 30.32 in. Hg (1026 hPa)
Pressure tendency: 0.01 inches (0.5 hPa) higher than three hours ago
ob: KBRL 140253Z AUTO 00000KT 10SM CLR 12/M01 A3032 RMK AO2 SLP266 T01171006 53005
cycle: 3

Station Type Date Time Source
KBRL TAF 2021/05/13 18:22 UTC NOAA

TAF KBRL 131720Z 1318/1418 16004KT P6SM FEW100

Example: see airport list